sensor_id;sensor_type;location;lat;lon;timestamp;temperature;humidity
63802;DHT22;49949;43.060;25.624;2023-10-19T00:00:48;6.10;99.90
63802;DHT22;49949;43.060;25.624;2023-10-19T00:03:18;6.00;99.90
63802;DHT22;49949;43.060;25.624;2023-10-19T00:05:45;6.00;99.90
63802;DHT22;49949;43.060;25.624;2023-10-19T00:08:12;6.10;99.90
63802;DHT22;49949;43.060;25.624;2023-10-19T00:10:39;6.10;99.90
63802;DHT22;49949;43.060;25.624;2023-10-19T00:13:08;6.10;99.90
63802;DHT22;49949;43.060;25.624;2023-10-19T00:15:35;6.00;99.90
63802;DHT22;49949;43.060;25.624;2023-10-19T00:18:07;6.00;99.90
63802;DHT22;49949;43.060;25.624;2023-10-19T00:20:44;5.90;99.90
63802;DHT22;49949;43.060;25.624;2023-10-19T00:23:25;5.90;99.90
63802;DHT22;49949;43.060;25.624;2023-10-19T00:26:01;5.80;99.90
63802;DHT22;49949;43.060;25.624;2023-10-19T00:28:34;5.80;99.90
63802;DHT22;49949;43.060;25.624;2023-10-19T00:31:04;5.90;99.90
63802;DHT22;49949;43.060;25.624;2023-10-19T00:33:37;5.90;99.90
63802;DHT22;49949;43.060;25.624;2023-10-19T00:36:09;5.90;99.90
63802;DHT22;49949;43.060;25.624;2023-10-19T00:38:39;5.80;99.90
63802;DHT22;49949;43.060;25.624;2023-10-19T00:41:09;5.80;99.90
63802;DHT22;49949;43.060;25.624;2023-10-19T00:43:36;5.80;99.90
63802;DHT22;49949;43.060;25.624;2023-10-19T00:46:20;5.80;99.90
63802;DHT22;49949;43.060;25.624;2023-10-19T00:48:57;5.90;99.90
63802;DHT22;49949;43.060;25.624;2023-10-19T00:51:35;5.80;99.90
63802;DHT22;49949;43.060;25.624;2023-10-19T00:54:11;5.80;99.90
63802;DHT22;49949;43.060;25.624;2023-10-19T00:56:46;5.80;99.90
63802;DHT22;49949;43.060;25.624;2023-10-19T00:59:18;5.70;99.90
63802;DHT22;49949;43.060;25.624;2023-10-19T01:01:54;5.70;99.90
63802;DHT22;49949;43.060;25.624;2023-10-19T01:04:22;5.60;99.90
63802;DHT22;49949;43.060;25.624;2023-10-19T01:06:49;5.50;99.90
63802;DHT22;49949;43.060;25.624;2023-10-19T01:09:32;5.40;99.90
63802;DHT22;49949;43.060;25.624;2023-10-19T01:12:02;5.40;99.90
63802;DHT22;49949;43.060;25.624;2023-10-19T01:15:21;5.40;99.90
63802;DHT22;49949;43.060;25.624;2023-10-19T01:17:58;5.50;99.90
63802;DHT22;49949;43.060;25.624;2023-10-19T01:20:26;5.50;99.90
63802;DHT22;49949;43.060;25.624;2023-10-19T01:23:03;5.40;99.90
63802;DHT22;49949;43.060;25.624;2023-10-19T01:25:55;5.40;99.90
63802;DHT22;49949;43.060;25.624;2023-10-19T01:31:06;5.40;99.90
63802;DHT22;49949;43.060;25.624;2023-10-19T01:33:32;5.40;99.90
63802;DHT22;49949;43.060;25.624;2023-10-19T01:36:00;5.40;99.90
63802;DHT22;49949;43.060;25.624;2023-10-19T01:38:40;5.40;99.90
63802;DHT22;49949;43.060;25.624;2023-10-19T01:41:07;5.40;99.90
63802;DHT22;49949;43.060;25.624;2023-10-19T01:43:41;5.30;99.90
63802;DHT22;49949;43.060;25.624;2023-10-19T01:46:08;5.30;99.90
63802;DHT22;49949;43.060;25.624;2023-10-19T01:48:48;5.30;99.90
63802;DHT22;49949;43.060;25.624;2023-10-19T01:51:21;5.30;99.90
63802;DHT22;49949;43.060;25.624;2023-10-19T01:53:48;5.20;99.90
63802;DHT22;49949;43.060;25.624;2023-10-19T01:56:16;5.20;99.90
63802;DHT22;49949;43.060;25.624;2023-10-19T01:58:44;5.10;99.90
63802;DHT22;49949;43.060;25.624;2023-10-19T02:01:12;5.10;99.90
63802;DHT22;49949;43.060;25.624;2023-10-19T02:03:39;5.00;99.90
63802;DHT22;49949;43.060;25.624;2023-10-19T02:06:09;5.00;99.90
63802;DHT22;49949;43.060;25.624;2023-10-19T02:09:00;5.00;99.90
63802;DHT22;49949;43.060;25.624;2023-10-19T02:11:27;5.00;99.90
63802;DHT22;49949;43.060;25.624;2023-10-19T02:13:56;5.00;99.90
63802;DHT22;49949;43.060;25.624;2023-10-19T02:16:25;5.00;99.90
63802;DHT22;49949;43.060;25.624;2023-10-19T02:18:51;5.00;99.90
63802;DHT22;49949;43.060;25.624;2023-10-19T02:21:18;4.90;99.90
63802;DHT22;49949;43.060;25.624;2023-10-19T02:23:56;4.90;99.90
63802;DHT22;49949;43.060;25.624;2023-10-19T02:26:23;4.80;99.90
63802;DHT22;49949;43.060;25.624;2023-10-19T02:28:52;4.90;99.90
63802;DHT22;49949;43.060;25.624;2023-10-19T02:31:19;4.90;99.90
63802;DHT22;49949;43.060;25.624;2023-10-19T02:33:49;4.90;99.90
63802;DHT22;49949;43.060;25.624;2023-10-19T02:36:24;4.90;99.90
63802;DHT22;49949;43.060;25.624;2023-10-19T02:38:54;4.80;99.90
63802;DHT22;49949;43.060;25.624;2023-10-19T02:41:20;4.80;99.90
63802;DHT22;49949;43.060;25.624;2023-10-19T02:43:47;4.80;99.90
63802;DHT22;49949;43.060;25.624;2023-10-19T02:46:16;4.80;99.90
63802;DHT22;49949;43.060;25.624;2023-10-19T02:48:46;4.80;99.90
63802;DHT22;49949;43.060;25.624;2023-10-19T02:51:13;4.80;99.90
63802;DHT22;49949;43.060;25.624;2023-10-19T02:53:42;4.80;99.90
63802;DHT22;49949;43.060;25.624;2023-10-19T02:56:15;4.70;99.90
63802;DHT22;49949;43.060;25.624;2023-10-19T02:58:49;4.70;99.90
63802;DHT22;49949;43.060;25.624;2023-10-19T03:01:17;4.70;99.90
63802;DHT22;49949;43.060;25.624;2023-10-19T03:03:47;4.80;99.90
63802;DHT22;49949;43.060;25.624;2023-10-19T03:06:18;4.70;99.90
63802;DHT22;49949;43.060;25.624;2023-10-19T03:08:45;4.70;99.90
63802;DHT22;49949;43.060;25.624;2023-10-19T03:11:12;4.80;99.90
63802;DHT22;49949;43.060;25.624;2023-10-19T03:13:39;4.70;99.90
63802;DHT22;49949;43.060;25.624;2023-10-19T03:16:07;4.70;99.90
63802;DHT22;49949;43.060;25.624;2023-10-19T03:18:34;4.70;99.90
63802;DHT22;49949;43.060;25.624;2023-10-19T03:21:03;4.70;99.90
63802;DHT22;49949;43.060;25.624;2023-10-19T03:23:29;4.60;99.90
63802;DHT22;49949;43.060;25.624;2023-10-19T03:25:59;4.60;99.90
63802;DHT22;49949;43.060;25.624;2023-10-19T03:28:49;4.60;99.90
63802;DHT22;49949;43.060;25.624;2023-10-19T03:31:23;4.60;99.90
63802;DHT22;49949;43.060;25.624;2023-10-19T03:33:53;4.70;99.90
63802;DHT22;49949;43.060;25.624;2023-10-19T03:36:23;4.60;99.90
63802;DHT22;49949;43.060;25.624;2023-10-19T03:38:50;4.60;99.90
63802;DHT22;49949;43.060;25.624;2023-10-19T03:41:17;4.60;99.90
63802;DHT22;49949;43.060;25.624;2023-10-19T03:43:48;4.50;99.90
63802;DHT22;49949;43.060;25.624;2023-10-19T03:46:14;4.50;99.90
63802;DHT22;49949;43.060;25.624;2023-10-19T03:48:47;4.50;99.90
63802;DHT22;49949;43.060;25.624;2023-10-19T03:51:13;4.50;99.90
63802;DHT22;49949;43.060;25.624;2023-10-19T03:53:40;4.40;99.90
63802;DHT22;49949;43.060;25.624;2023-10-19T03:56:12;4.40;99.90
63802;DHT22;49949;43.060;25.624;2023-10-19T03:58:38;4.40;99.90
63802;DHT22;49949;43.060;25.624;2023-10-19T04:01:05;4.50;99.90
63802;DHT22;49949;43.060;25.624;2023-10-19T04:03:32;4.50;99.90
63802;DHT22;49949;43.060;25.624;2023-10-19T04:06:00;4.40;99.90
63802;DHT22;49949;43.060;25.624;2023-10-19T04:08:26;4.40;99.90
63802;DHT22;49949;43.060;25.624;2023-10-19T04:10:52;4.40;99.90
63802;DHT22;49949;43.060;25.624;2023-10-19T04:13:34;4.40;99.90
63802;DHT22;49949;43.060;25.624;2023-10-19T04:16:02;4.40;99.90
63802;DHT22;49949;43.060;25.624;2023-10-19T04:18:28;4.40;99.90
63802;DHT22;49949;43.060;25.624;2023-10-19T04:20:54;4.40;99.90
63802;DHT22;49949;43.060;25.624;2023-10-19T04:23:21;4.50;99.90
63802;DHT22;49949;43.060;25.624;2023-10-19T04:25:47;4.40;99.90
63802;DHT22;49949;43.060;25.624;2023-10-19T04:28:13;4.40;99.90
63802;DHT22;49949;43.060;25.624;2023-10-19T04:30:39;4.50;99.90
63802;DHT22;49949;43.060;25.624;2023-10-19T04:33:05;4.50;99.90
63802;DHT22;49949;43.060;25.624;2023-10-19T04:35:35;4.40;99.90
63802;DHT22;49949;43.060;25.624;2023-10-19T04:38:04;4.50;99.90
63802;DHT22;49949;43.060;25.624;2023-10-19T04:40:33;4.50;99.90
63802;DHT22;49949;43.060;25.624;2023-10-19T04:43:01;4.50;99.90
63802;DHT22;49949;43.060;25.624;2023-10-19T04:45:28;4.50;99.90
63802;DHT22;49949;43.060;25.624;2023-10-19T04:47:55;4.50;99.90
63802;DHT22;49949;43.060;25.624;2023-10-19T04:50:21;4.50;99.90
63802;DHT22;49949;43.060;25.624;2023-10-19T04:52:47;4.50;99.90
63802;DHT22;49949;43.060;25.624;2023-10-19T04:55:13;4.60;99.90
63802;DHT22;49949;43.060;25.624;2023-10-19T04:57:39;4.60;99.90
63802;DHT22;49949;43.060;25.624;2023-10-19T05:00:05;4.60;99.90
63802;DHT22;49949;43.060;25.624;2023-10-19T05:02:31;4.70;99.90
63802;DHT22;49949;43.060;25.624;2023-10-19T05:04:56;4.80;99.90
63802;DHT22;49949;43.060;25.624;2023-10-19T05:07:22;4.70;99.90
63802;DHT22;49949;43.060;25.624;2023-10-19T05:09:48;4.70;99.90
63802;DHT22;49949;43.060;25.624;2023-10-19T05:12:14;4.80;99.90
63802;DHT22;49949;43.060;25.624;2023-10-19T05:14:41;4.80;99.90
63802;DHT22;49949;43.060;25.624;2023-10-19T05:17:09;4.90;99.90
63802;DHT22;49949;43.060;25.624;2023-10-19T05:19:36;5.00;99.90
63802;DHT22;49949;43.060;25.624;2023-10-19T05:22:04;5.00;99.90
63802;DHT22;49949;43.060;25.624;2023-10-19T05:24:29;5.10;99.90
63802;DHT22;49949;43.060;25.624;2023-10-19T05:26:55;5.20;99.90
63802;DHT22;49949;43.060;25.624;2023-10-19T05:29:21;5.20;99.90
63802;DHT22;49949;43.060;25.624;2023-10-19T05:31:47;5.30;99.90
63802;DHT22;49949;43.060;25.624;2023-10-19T05:34:22;5.30;99.90
63802;DHT22;49949;43.060;25.624;2023-10-19T05:36:47;5.30;99.90
63802;DHT22;49949;43.060;25.624;2023-10-19T05:39:17;5.40;99.90
63802;DHT22;49949;43.060;25.624;2023-10-19T05:41:43;5.40;99.90
63802;DHT22;49949;43.060;25.624;2023-10-19T05:44:09;5.50;99.90
63802;DHT22;49949;43.060;25.624;2023-10-19T05:46:35;5.50;99.90
63802;DHT22;49949;43.060;25.624;2023-10-19T05:49:02;5.50;99.90
63802;DHT22;49949;43.060;25.624;2023-10-19T05:51:30;5.60;99.90
63802;DHT22;49949;43.060;25.624;2023-10-19T05:53:55;5.70;99.90
63802;DHT22;49949;43.060;25.624;2023-10-19T05:56:27;5.80;99.90
63802;DHT22;49949;43.060;25.624;2023-10-19T05:58:53;5.90;99.90
63802;DHT22;49949;43.060;25.624;2023-10-19T06:01:19;6.00;99.90
63802;DHT22;49949;43.060;25.624;2023-10-19T06:03:45;6.10;99.90
63802;DHT22;49949;43.060;25.624;2023-10-19T06:06:11;6.30;99.90
63802;DHT22;49949;43.060;25.624;2023-10-19T06:08:39;6.40;99.90
63802;DHT22;49949;43.060;25.624;2023-10-19T06:11:05;6.50;99.90
63802;DHT22;49949;43.060;25.624;2023-10-19T06:13:32;6.70;99.90
63802;DHT22;49949;43.060;25.624;2023-10-19T06:15:57;6.80;99.90
63802;DHT22;49949;43.060;25.624;2023-10-19T06:18:23;6.90;99.90
63802;DHT22;49949;43.060;25.624;2023-10-19T06:20:49;7.10;99.90
63802;DHT22;49949;43.060;25.624;2023-10-19T06:23:17;7.30;99.90
63802;DHT22;49949;43.060;25.624;2023-10-19T06:25:43;7.40;99.90
63802;DHT22;49949;43.060;25.624;2023-10-19T06:28:09;7.60;99.90
63802;DHT22;49949;43.060;25.624;2023-10-19T06:30:36;7.80;99.90
63802;DHT22;49949;43.060;25.624;2023-10-19T06:33:02;8.00;99.90
63802;DHT22;49949;43.060;25.624;2023-10-19T06:35:29;8.20;99.90
63802;DHT22;49949;43.060;25.624;2023-10-19T06:37:57;8.30;99.90
63802;DHT22;49949;43.060;25.624;2023-10-19T06:40:24;8.50;99.90
63802;DHT22;49949;43.060;25.624;2023-10-19T06:42:54;8.60;99.90
63802;DHT22;49949;43.060;25.624;2023-10-19T06:45:22;8.70;99.90
63802;DHT22;49949;43.060;25.624;2023-10-19T06:47:49;8.90;99.90
63802;DHT22;49949;43.060;25.624;2023-10-19T06:50:24;9.10;99.90
63802;DHT22;49949;43.060;25.624;2023-10-19T06:52:51;9.20;99.90
63802;DHT22;49949;43.060;25.624;2023-10-19T06:55:18;9.40;99.90
63802;DHT22;49949;43.060;25.624;2023-10-19T06:57:52;9.60;99.90
63802;DHT22;49949;43.060;25.624;2023-10-19T07:00:20;9.80;99.90
63802;DHT22;49949;43.060;25.624;2023-10-19T07:02:47;10.10;99.90
63802;DHT22;49949;43.060;25.624;2023-10-19T07:05:14;10.30;99.90
63802;DHT22;49949;43.060;25.624;2023-10-19T07:07:44;10.50;99.90
63802;DHT22;49949;43.060;25.624;2023-10-19T07:10:12;10.70;99.90
63802;DHT22;49949;43.060;25.624;2023-10-19T07:12:43;10.90;99.90
63802;DHT22;49949;43.060;25.624;2023-10-19T07:15:10;11.20;99.90
63802;DHT22;49949;43.060;25.624;2023-10-19T07:17:46;11.40;99.90
63802;DHT22;49949;43.060;25.624;2023-10-19T07:20:15;11.70;99.90
63802;DHT22;49949;43.060;25.624;2023-10-19T07:23:03;12.00;99.90
63802;DHT22;49949;43.060;25.624;2023-10-19T07:25:45;12.30;99.90
63802;DHT22;49949;43.060;25.624;2023-10-19T07:28:13;12.60;99.90
63802;DHT22;49949;43.060;25.624;2023-10-19T07:30:40;12.90;99.90
63802;DHT22;49949;43.060;25.624;2023-10-19T07:33:10;13.50;99.90
63802;DHT22;49949;43.060;25.624;2023-10-19T07:35:39;14.20;99.90
63802;DHT22;49949;43.060;25.624;2023-10-19T07:38:05;14.80;99.90
63802;DHT22;49949;43.060;25.624;2023-10-19T07:40:36;15.20;99.90
63802;DHT22;49949;43.060;25.624;2023-10-19T07:43:02;15.80;99.90
63802;DHT22;49949;43.060;25.624;2023-10-19T07:45:29;16.20;99.90
63802;DHT22;49949;43.060;25.624;2023-10-19T07:47:57;16.50;99.90
63802;DHT22;49949;43.060;25.624;2023-10-19T07:50:23;16.70;99.20
63802;DHT22;49949;43.060;25.624;2023-10-19T07:52:53;16.80;98.50
63802;DHT22;49949;43.060;25.624;2023-10-19T07:55:21;17.00;98.40
63802;DHT22;49949;43.060;25.624;2023-10-19T07:57:52;17.20;96.90
63802;DHT22;49949;43.060;25.624;2023-10-19T08:00:18;17.30;95.90
63802;DHT22;49949;43.060;25.624;2023-10-19T08:02:45;17.60;93.80
63802;DHT22;49949;43.060;25.624;2023-10-19T08:05:12;17.80;93.90
63802;DHT22;49949;43.060;25.624;2023-10-19T08:07:38;17.80;92.90
63802;DHT22;49949;43.060;25.624;2023-10-19T08:10:14;17.90;92.10
63802;DHT22;49949;43.060;25.624;2023-10-19T08:12:41;18.00;91.00
63802;DHT22;49949;43.060;25.624;2023-10-19T08:15:11;18.00;91.10
63802;DHT22;49949;43.060;25.624;2023-10-19T08:17:40;18.00;90.10
63802;DHT22;49949;43.060;25.624;2023-10-19T08:20:07;18.10;89.50
63802;DHT22;49949;43.060;25.624;2023-10-19T08:22:42;18.20;89.00
63802;DHT22;49949;43.060;25.624;2023-10-19T08:25:08;18.30;88.30
63802;DHT22;49949;43.060;25.624;2023-10-19T08:27:44;18.30;87.20
63802;DHT22;49949;43.060;25.624;2023-10-19T08:30:14;18.40;87.50
63802;DHT22;49949;43.060;25.624;2023-10-19T08:32:40;18.50;86.50
63802;DHT22;49949;43.060;25.624;2023-10-19T08:35:08;18.50;86.30
63802;DHT22;49949;43.060;25.624;2023-10-19T08:37:39;18.70;86.00
63802;DHT22;49949;43.060;25.624;2023-10-19T08:40:07;18.90;84.40
63802;DHT22;49949;43.060;25.624;2023-10-19T08:42:39;19.00;84.30
63802;DHT22;49949;43.060;25.624;2023-10-19T08:45:07;19.20;83.50
63802;DHT22;49949;43.060;25.624;2023-10-19T08:47:36;19.30;83.00
63802;DHT22;49949;43.060;25.624;2023-10-19T08:50:03;19.40;82.70
63802;DHT22;49949;43.060;25.624;2023-10-19T08:52:30;19.50;81.70
63802;DHT22;49949;43.060;25.624;2023-10-19T08:54:57;19.60;81.10
63802;DHT22;49949;43.060;25.624;2023-10-19T08:57:23;19.80;81.30
63802;DHT22;49949;43.060;25.624;2023-10-19T08:59:49;19.90;79.50
63802;DHT22;49949;43.060;25.624;2023-10-19T09:02:15;19.70;79.90
63802;DHT22;49949;43.060;25.624;2023-10-19T09:04:47;19.80;78.90
63802;DHT22;49949;43.060;25.624;2023-10-19T09:07:13;19.90;79.10
63802;DHT22;49949;43.060;25.624;2023-10-19T09:09:41;20.10;79.60
63802;DHT22;49949;43.060;25.624;2023-10-19T09:12:07;20.20;77.20
63802;DHT22;49949;43.060;25.624;2023-10-19T09:14:35;20.20;76.90
63802;DHT22;49949;43.060;25.624;2023-10-19T09:17:11;20.20;76.40
63802;DHT22;49949;43.060;25.624;2023-10-19T09:19:43;20.40;74.70
63802;DHT22;49949;43.060;25.624;2023-10-19T09:22:10;20.60;74.50
63802;DHT22;49949;43.060;25.624;2023-10-19T09:24:51;20.70;75.30
63802;DHT22;49949;43.060;25.624;2023-10-19T09:27:22;20.60;74.10
63802;DHT22;49949;43.060;25.624;2023-10-19T09:29:49;20.80;74.00
63802;DHT22;49949;43.060;25.624;2023-10-19T09:32:17;21.00;73.70
63802;DHT22;49949;43.060;25.624;2023-10-19T09:34:44;21.10;73.60
63802;DHT22;49949;43.060;25.624;2023-10-19T09:37:11;21.20;72.10
63802;DHT22;49949;43.060;25.624;2023-10-19T09:39:38;21.40;71.20
63802;DHT22;49949;43.060;25.624;2023-10-19T09:42:10;21.40;71.20
63802;DHT22;49949;43.060;25.624;2023-10-19T09:44:50;21.40;70.00
63802;DHT22;49949;43.060;25.624;2023-10-19T09:47:38;21.30;70.00
63802;DHT22;49949;43.060;25.624;2023-10-19T09:50:05;21.20;71.40
63802;DHT22;49949;43.060;25.624;2023-10-19T09:52:33;21.20;70.90
63802;DHT22;49949;43.060;25.624;2023-10-19T09:57:44;21.10;70.80
63802;DHT22;49949;43.060;25.624;2023-10-19T10:00:12;21.10;70.40
63802;DHT22;49949;43.060;25.624;2023-10-19T10:02:39;21.10;69.70
63802;DHT22;49949;43.060;25.624;2023-10-19T10:10:47;21.30;70.10
63802;DHT22;49949;43.060;25.624;2023-10-19T10:15:55;21.40;69.70
63802;DHT22;49949;43.060;25.624;2023-10-19T10:18:23;21.30;67.70
63802;DHT22;49949;43.060;25.624;2023-10-19T10:21:07;21.30;68.10
63802;DHT22;49949;43.060;25.624;2023-10-19T10:23:42;21.40;65.60
63802;DHT22;49949;43.060;25.624;2023-10-19T10:26:12;21.30;66.20
63802;DHT22;49949;43.060;25.624;2023-10-19T10:28:39;21.30;67.40
63802;DHT22;49949;43.060;25.624;2023-10-19T10:33:47;21.50;67.20
63802;DHT22;49949;43.060;25.624;2023-10-19T10:36:15;21.50;66.50
63802;DHT22;49949;43.060;25.624;2023-10-19T10:38:43;21.50;66.10
63802;DHT22;49949;43.060;25.624;2023-10-19T10:41:09;21.60;67.80
63802;DHT22;49949;43.060;25.624;2023-10-19T10:43:52;21.60;66.70
63802;DHT22;49949;43.060;25.624;2023-10-19T10:46:19;21.60;66.70
63802;DHT22;49949;43.060;25.624;2023-10-19T10:48:45;21.50;67.70
63802;DHT22;49949;43.060;25.624;2023-10-19T10:51:21;21.60;66.60
63802;DHT22;49949;43.060;25.624;2023-10-19T10:53:49;21.60;67.10
63802;DHT22;49949;43.060;25.624;2023-10-19T10:56:16;21.60;67.30
63802;DHT22;49949;43.060;25.624;2023-10-19T10:58:42;21.60;67.40
63802;DHT22;49949;43.060;25.624;2023-10-19T11:01:08;21.50;67.60
63802;DHT22;49949;43.060;25.624;2023-10-19T11:03:36;21.50;67.60
63802;DHT22;49949;43.060;25.624;2023-10-19T11:06:06;21.50;67.70
63802;DHT22;49949;43.060;25.624;2023-10-19T11:08:36;21.60;66.70
63802;DHT22;49949;43.060;25.624;2023-10-19T11:11:07;21.70;67.00
63802;DHT22;49949;43.060;25.624;2023-10-19T11:13:36;21.70;67.00
63802;DHT22;49949;43.060;25.624;2023-10-19T11:16:05;21.70;67.30
63802;DHT22;49949;43.060;25.624;2023-10-19T11:21:02;21.80;67.40
63802;DHT22;49949;43.060;25.624;2023-10-19T11:23:49;21.80;67.40
63802;DHT22;49949;43.060;25.624;2023-10-19T11:26:20;21.60;68.30
63802;DHT22;49949;43.060;25.624;2023-10-19T11:28:46;21.60;68.30
63802;DHT22;49949;43.060;25.624;2023-10-19T11:33:46;21.50;68.10
63802;DHT22;49949;43.060;25.624;2023-10-19T11:36:14;21.50;67.60
63802;DHT22;49949;43.060;25.624;2023-10-19T11:38:41;21.50;67.90
63802;DHT22;49949;43.060;25.624;2023-10-19T11:41:08;21.40;67.20
63802;DHT22;49949;43.060;25.624;2023-10-19T11:43:35;21.50;67.20
63802;DHT22;49949;43.060;25.624;2023-10-19T11:46:01;21.50;67.40
63802;DHT22;49949;43.060;25.624;2023-10-19T11:48:30;21.60;66.90
63802;DHT22;49949;43.060;25.624;2023-10-19T11:50:56;21.60;66.70
63802;DHT22;49949;43.060;25.624;2023-10-19T11:53:23;21.60;67.30
63802;DHT22;49949;43.060;25.624;2023-10-19T11:55:48;21.40;67.20
63802;DHT22;49949;43.060;25.624;2023-10-19T11:58:14;21.50;67.20
63802;DHT22;49949;43.060;25.624;2023-10-19T12:00:41;21.30;67.20
63802;DHT22;49949;43.060;25.624;2023-10-19T12:03:09;21.40;67.10
63802;DHT22;49949;43.060;25.624;2023-10-19T12:05:37;21.50;67.40
63802;DHT22;49949;43.060;25.624;2023-10-19T12:08:03;21.50;67.20
63802;DHT22;49949;43.060;25.624;2023-10-19T12:10:29;21.50;66.70
63802;DHT22;49949;43.060;25.624;2023-10-19T12:13:06;21.60;66.60
63802;DHT22;49949;43.060;25.624;2023-10-19T12:15:34;21.70;66.10
63802;DHT22;49949;43.060;25.624;2023-10-19T12:18:00;21.70;66.20
63802;DHT22;49949;43.060;25.624;2023-10-19T12:20:27;21.80;66.40
63802;DHT22;49949;43.060;25.624;2023-10-19T12:22:53;21.70;66.20
63802;DHT22;49949;43.060;25.624;2023-10-19T12:25:22;21.70;65.50
63802;DHT22;49949;43.060;25.624;2023-10-19T12:27:54;21.80;65.30
63802;DHT22;49949;43.060;25.624;2023-10-19T12:30:20;21.80;64.60
63802;DHT22;49949;43.060;25.624;2023-10-19T12:32:48;21.90;65.60
63802;DHT22;49949;43.060;25.624;2023-10-19T12:35:17;22.00;65.30
63802;DHT22;49949;43.060;25.624;2023-10-19T12:37:45;22.00;65.00
63802;DHT22;49949;43.060;25.624;2023-10-19T12:40:15;22.10;64.40
63802;DHT22;49949;43.060;25.624;2023-10-19T12:42:53;22.20;64.60
63802;DHT22;49949;43.060;25.624;2023-10-19T12:45:26;22.30;63.90
63802;DHT22;49949;43.060;25.624;2023-10-19T12:47:52;22.40;63.90
63802;DHT22;49949;43.060;25.624;2023-10-19T12:50:21;22.30;63.90
63802;DHT22;49949;43.060;25.624;2023-10-19T12:52:50;22.40;63.30
63802;DHT22;49949;43.060;25.624;2023-10-19T12:55:18;22.30;63.20
63802;DHT22;49949;43.060;25.624;2023-10-19T12:57:44;22.40;63.90
63802;DHT22;49949;43.060;25.624;2023-10-19T13:00:10;22.30;63.20
63802;DHT22;49949;43.060;25.624;2023-10-19T13:02:57;22.40;63.90
63802;DHT22;49949;43.060;25.624;2023-10-19T13:05:46;22.50;63.40
63802;DHT22;49949;43.060;25.624;2023-10-19T13:08:12;22.60;64.50
63802;DHT22;49949;43.060;25.624;2023-10-19T13:10:47;22.60;63.50
63802;DHT22;49949;43.060;25.624;2023-10-19T13:13:14;22.50;64.00
63802;DHT22;49949;43.060;25.624;2023-10-19T13:15:45;22.50;63.40
63802;DHT22;49949;43.060;25.624;2023-10-19T13:18:12;22.50;64.20
63802;DHT22;49949;43.060;25.624;2023-10-19T13:20:48;22.40;64.40
63802;DHT22;49949;43.060;25.624;2023-10-19T13:23:14;22.40;64.20
63802;DHT22;49949;43.060;25.624;2023-10-19T13:25:47;22.40;65.10
63802;DHT22;49949;43.060;25.624;2023-10-19T13:28:19;22.30;66.00
63802;DHT22;49949;43.060;25.624;2023-10-19T13:30:47;22.40;65.80
63802;DHT22;49949;43.060;25.624;2023-10-19T13:33:14;22.50;65.30
63802;DHT22;49949;43.060;25.624;2023-10-19T13:35:44;22.50;62.00
63802;DHT22;49949;43.060;25.624;2023-10-19T13:38:11;22.50;63.00
63802;DHT22;49949;43.060;25.624;2023-10-19T13:40:41;22.50;63.90
63802;DHT22;49949;43.060;25.624;2023-10-19T13:43:08;22.60;64.10
63802;DHT22;49949;43.060;25.624;2023-10-19T13:45:36;22.60;64.20
63802;DHT22;49949;43.060;25.624;2023-10-19T13:48:03;22.50;63.40
63802;DHT22;49949;43.060;25.624;2023-10-19T13:50:32;22.50;63.60
63802;DHT22;49949;43.060;25.624;2023-10-19T13:52:59;22.60;63.90
63802;DHT22;49949;43.060;25.624;2023-10-19T13:55:29;22.50;63.40
63802;DHT22;49949;43.060;25.624;2023-10-19T13:57:55;22.50;64.40
63802;DHT22;49949;43.060;25.624;2023-10-19T14:00:22;22.60;65.20
63802;DHT22;49949;43.060;25.624;2023-10-19T14:03:00;22.50;66.20
63802;DHT22;49949;43.060;25.624;2023-10-19T14:05:27;22.40;66.00
63802;DHT22;49949;43.060;25.624;2023-10-19T14:07:54;22.40;66.70
63802;DHT22;49949;43.060;25.624;2023-10-19T14:10:21;22.40;66.90
63802;DHT22;49949;43.060;25.624;2023-10-19T14:12:47;22.40;66.40
63802;DHT22;49949;43.060;25.624;2023-10-19T14:15:18;22.30;66.10
63802;DHT22;49949;43.060;25.624;2023-10-19T14:17:45;22.30;66.90
63802;DHT22;49949;43.060;25.624;2023-10-19T14:20:16;22.30;67.40
63802;DHT22;49949;43.060;25.624;2023-10-19T14:22:48;22.30;67.90
63802;DHT22;49949;43.060;25.624;2023-10-19T14:25:14;22.10;68.40
63802;DHT22;49949;43.060;25.624;2023-10-19T14:27:45;22.00;69.30
63802;DHT22;49949;43.060;25.624;2023-10-19T14:30:16;21.90;69.70
63802;DHT22;49949;43.060;25.624;2023-10-19T14:32:46;21.90;69.70
63802;DHT22;49949;43.060;25.624;2023-10-19T14:35:16;21.80;70.00
63802;DHT22;49949;43.060;25.624;2023-10-19T14:37:44;21.70;70.20
63802;DHT22;49949;43.060;25.624;2023-10-19T14:40:17;21.60;70.90
63802;DHT22;49949;43.060;25.624;2023-10-19T14:42:45;21.40;71.30
63802;DHT22;49949;43.060;25.624;2023-10-19T14:45:13;21.40;71.60
63802;DHT22;49949;43.060;25.624;2023-10-19T14:47:40;21.30;71.90
63802;DHT22;49949;43.060;25.624;2023-10-19T14:50:10;21.10;72.60
63802;DHT22;49949;43.060;25.624;2023-10-19T14:52:37;21.10;72.70
63802;DHT22;49949;43.060;25.624;2023-10-19T14:55:04;21.10;73.20
63802;DHT22;49949;43.060;25.624;2023-10-19T14:57:35;20.90;73.80
63802;DHT22;49949;43.060;25.624;2023-10-19T15:00:01;20.80;74.10
63802;DHT22;49949;43.060;25.624;2023-10-19T15:02:46;20.70;74.80
63802;DHT22;49949;43.060;25.624;2023-10-19T15:05:13;20.50;75.40
63802;DHT22;49949;43.060;25.624;2023-10-19T15:07:41;20.40;75.50
63802;DHT22;49949;43.060;25.624;2023-10-19T15:10:08;20.20;76.00
63802;DHT22;49949;43.060;25.624;2023-10-19T15:12:40;20.10;76.70
63802;DHT22;49949;43.060;25.624;2023-10-19T15:15:07;20.00;76.80
63802;DHT22;49949;43.060;25.624;2023-10-19T15:17:38;19.90;77.40
63802;DHT22;49949;43.060;25.624;2023-10-19T15:20:08;19.70;77.70
63802;DHT22;49949;43.060;25.624;2023-10-19T15:22:38;19.70;78.10
63802;DHT22;49949;43.060;25.624;2023-10-19T15:25:07;19.50;78.60
63802;DHT22;49949;43.060;25.624;2023-10-19T15:27:37;19.50;78.70
63802;DHT22;49949;43.060;25.624;2023-10-19T15:30:04;19.40;79.30
63802;DHT22;49949;43.060;25.624;2023-10-19T15:32:34;19.20;79.70
63802;DHT22;49949;43.060;25.624;2023-10-19T15:35:01;19.10;80.20
63802;DHT22;49949;43.060;25.624;2023-10-19T15:37:27;19.10;80.40
63802;DHT22;49949;43.060;25.624;2023-10-19T15:39:53;19.00;80.50
63802;DHT22;49949;43.060;25.624;2023-10-19T15:42:19;18.90;80.90
63802;DHT22;49949;43.060;25.624;2023-10-19T15:44:47;18.90;81.00
63802;DHT22;49949;43.060;25.624;2023-10-19T15:47:13;18.70;81.10
63802;DHT22;49949;43.060;25.624;2023-10-19T15:49:50;18.70;81.30
63802;DHT22;49949;43.060;25.624;2023-10-19T15:52:25;18.70;81.60
63802;DHT22;49949;43.060;25.624;2023-10-19T15:54:54;18.50;81.80
63802;DHT22;49949;43.060;25.624;2023-10-19T15:57:20;18.50;82.20